Time;durP1;ratioP1;P1;durP2;ratioP2;P2;SDS_P1;SDS_P2;PMS_P1;PMS_P2;Temp;Humidity;BMP_temperature;BMP_pressure;BME280_temperature;BME280_humidity;BME280_pressure;Samples;Min_cycle;Max_cycle;Signal;HPM_P1;HPM_P2
2021/07/20 00:01:26;;;;;;;;;;;20.20;99.90;;;;;;5094655;28;19930;-77
2021/07/20 00:03:54;;;;;;;;;;;20.10;99.90;;;;;;5094914;28;19920;-77
2021/07/20 00:06:23;;;;;;;;;;;20.10;99.90;;;;;;5094705;28;19919;-77
2021/07/20 00:08:51;;;;;;;;;;;20.10;99.90;;;;;;5094793;28;20268;-77
2021/07/20 00:11:19;;;;;;;;;;;20.10;99.90;;;;;;5094634;28;19920;-78
2021/07/20 00:13:48;;;;;;;;;;;20.10;99.90;;;;;;5094558;28;20242;-77
2021/07/20 00:16:15;;;;;;;;;;;20.00;99.90;;;;;;5094971;28;20256;-77
2021/07/20 00:18:43;;;;;;;;;;;19.90;99.90;;;;;;5098225;28;20014;-77
2021/07/20 00:21:11;;;;;;;;;;;19.90;99.90;;;;;;5098238;28;19930;-77
2021/07/20 00:23:40;;;;;;;;;;;19.90;99.90;;;;;;5080728;28;20341;-77
2021/07/20 01:11:58;;;;;;;;;;;19.40;99.90;;;;;;5096875;28;20273;-78
2021/07/20 01:14:25;;;;;;;;;;;19.30;99.90;;;;;;5097151;28;20258;-78
2021/07/20 01:16:52;;;;;;;;;;;19.30;99.90;;;;;;5097164;28;19919;-77
2021/07/20 01:19:19;;;;;;;;;;;19.30;99.90;;;;;;5097019;28;19930;-77
2021/07/20 01:21:46;;;;;;;;;;;19.30;99.90;;;;;;5097068;28;19926;-77
2021/07/20 01:24:14;;;;;;;;;;;19.30;99.90;;;;;;5097063;28;19931;-77
2021/07/20 01:26:41;;;;;;;;;;;19.20;99.90;;;;;;5096944;28;19919;-77
2021/07/20 01:29:08;;;;;;;;;;;19.20;99.90;;;;;;5096457;28;19920;-77
2021/07/20 01:31:36;;;;;;;;;;;19.20;99.90;;;;;;5096856;28;20361;-77
2021/07/20 01:34:02;;;;;;;;;;;19.10;99.90;;;;;;5096873;28;20366;-77
2021/07/20 01:36:29;;;;;;;;;;;19.10;99.90;;;;;;5096711;28;19931;-77
2021/07/20 01:38:56;;;;;;;;;;;19.10;99.90;;;;;;5096676;28;19920;-77
2021/07/20 01:41:24;;;;;;;;;;;19.00;99.90;;;;;;5096522;28;19923;-77
2021/07/20 01:43:53;;;;;;;;;;;19.00;99.90;;;;;;5096621;28;19920;-77
2021/07/20 01:46:20;;;;;;;;;;;19.00;99.90;;;;;;5096413;28;19919;-78
2021/07/20 01:48:46;;;;;;;;;;;19.00;99.90;;;;;;5096421;28;20351;-77
2021/07/20 01:51:13;;;;;;;;;;;19.00;99.90;;;;;;5096458;28;19920;-77
2021/07/20 01:53:41;;;;;;;;;;;19.00;99.90;;;;;;5096397;28;19920;-77
2021/07/20 01:56:08;;;;;;;;;;;18.90;99.90;;;;;;5096385;28;19956;-78
2021/07/20 01:58:41;;;;;;;;;;;18.90;99.90;;;;;;5096267;28;19930;-77
2021/07/20 02:01:09;;;;;;;;;;;18.90;99.90;;;;;;5096236;28;19935;-77
2021/07/20 02:03:57;;;;;;;;;;;18.90;99.90;;;;;;5096152;28;20349;-77
2021/07/20 02:09:09;;;;;;;;;;;18.80;99.90;;;;;;5096514;28;19947;-77
2021/07/20 02:11:37;;;;;;;;;;;18.80;99.90;;;;;;5095899;28;20003;-77
2021/07/20 02:14:08;;;;;;;;;;;18.80;99.90;;;;;;5096209;28;20372;-77
2021/07/20 02:16:35;;;;;;;;;;;18.80;99.90;;;;;;5096143;28;19920;-77
2021/07/20 02:19:03;;;;;;;;;;;18.80;99.90;;;;;;5096053;28;19927;-77
2021/07/20 02:21:30;;;;;;;;;;;18.80;99.90;;;;;;5095879;28;19926;-77
2021/07/20 02:23:57;;;;;;;;;;;18.70;99.90;;;;;;5096102;28;19927;-77
2021/07/20 02:26:24;;;;;;;;;;;18.70;99.90;;;;;;5095814;28;20246;-77
2021/07/20 02:28:50;;;;;;;;;;;18.70;99.90;;;;;;5095737;28;20230;-77
2021/07/20 02:31:19;;;;;;;;;;;18.70;99.90;;;;;;5095769;28;19938;-77
2021/07/20 02:33:45;;;;;;;;;;;18.70;99.90;;;;;;5095737;28;19919;-77
2021/07/20 02:36:12;;;;;;;;;;;18.70;99.90;;;;;;5095611;28;19919;-77
2021/07/20 02:38:39;;;;;;;;;;;18.70;99.90;;;;;;5095501;28;19934;-77
2021/07/20 02:41:06;;;;;;;;;;;18.70;99.90;;;;;;5095444;28;19920;-77
2021/07/20 02:43:33;;;;;;;;;;;18.60;99.90;;;;;;5095552;28;19930;-77
2021/07/20 02:46:00;;;;;;;;;;;18.60;99.90;;;;;;5095647;28;19930;-77
2021/07/20 02:48:28;;;;;;;;;;;18.60;99.90;;;;;;5095538;28;20264;-78
2021/07/20 02:50:55;;;;;;;;;;;18.50;99.90;;;;;;5095397;28;19928;-77
2021/07/20 02:53:22;;;;;;;;;;;18.50;99.90;;;;;;5095598;28;19930;-77
2021/07/20 02:55:49;;;;;;;;;;;18.50;99.90;;;;;;5095291;28;19924;-77
2021/07/20 02:58:16;;;;;;;;;;;18.50;99.90;;;;;;5095310;28;19930;-77
2021/07/20 03:00:43;;;;;;;;;;;18.50;99.90;;;;;;5095212;28;20260;-77
2021/07/20 03:03:10;;;;;;;;;;;18.50;99.90;;;;;;5095365;28;19920;-77
2021/07/20 03:05:38;;;;;;;;;;;18.40;99.90;;;;;;5095277;28;19919;-78
2021/07/20 03:08:05;;;;;;;;;;;18.40;99.90;;;;;;5095138;28;19926;-77
2021/07/20 03:10:34;;;;;;;;;;;18.40;99.90;;;;;;5094273;28;20150;-78
2021/07/20 03:13:02;;;;;;;;;;;18.40;99.90;;;;;;5095344;28;19924;-77
2021/07/20 03:15:29;;;;;;;;;;;18.40;99.90;;;;;;5095227;28;19934;-77
2021/07/20 03:17:56;;;;;;;;;;;18.40;99.90;;;;;;5095124;28;19930;-77
2021/07/20 03:20:23;;;;;;;;;;;18.40;99.90;;;;;;5095299;28;19923;-77
2021/07/20 03:22:52;;;;;;;;;;;18.40;99.90;;;;;;5095057;28;19935;-77
2021/07/20 03:25:19;;;;;;;;;;;18.40;99.90;;;;;;5095126;28;19934;-77
2021/07/20 03:27:45;;;;;;;;;;;18.40;99.90;;;;;;5095152;28;19932;-77
2021/07/20 03:30:13;;;;;;;;;;;18.40;99.90;;;;;;5095016;28;20374;-77
2021/07/20 03:32:44;;;;;;;;;;;18.30;99.90;;;;;;5094961;28;20378;-77
2021/07/20 03:35:12;;;;;;;;;;;18.30;99.90;;;;;;5095021;28;19924;-77
2021/07/20 03:37:39;;;;;;;;;;;18.20;99.90;;;;;;5095262;28;19928;-77
2021/07/20 03:40:08;;;;;;;;;;;18.20;99.90;;;;;;5094841;28;20326;-77
2021/07/20 03:42:35;;;;;;;;;;;18.20;99.90;;;;;;5095047;28;19924;-78
2021/07/20 03:45:02;;;;;;;;;;;18.10;99.90;;;;;;5094991;28;19934;-78
2021/07/20 03:47:28;;;;;;;;;;;18.10;99.90;;;;;;5094814;28;20252;-78
2021/07/20 03:49:55;;;;;;;;;;;18.00;99.90;;;;;;5094959;28;19924;-78
2021/07/20 03:52:22;;;;;;;;;;;18.00;99.90;;;;;;5098814;28;19924;-78
2021/07/20 03:54:49;;;;;;;;;;;18.10;99.90;;;;;;5098775;28;19934;-77
2021/07/20 03:57:17;;;;;;;;;;;18.10;99.90;;;;;;5098865;28;19924;-77
2021/07/20 03:59:44;;;;;;;;;;;18.10;99.90;;;;;;5098594;28;19924;-77
2021/07/20 04:02:11;;;;;;;;;;;18.10;99.90;;;;;;5098839;28;19950;-77
2021/07/20 04:04:38;;;;;;;;;;;18.10;99.90;;;;;;5098649;28;19931;-78
2021/07/20 04:07:06;;;;;;;;;;;18.10;99.90;;;;;;5098605;28;19924;-78
2021/07/20 04:09:32;;;;;;;;;;;18.00;99.90;;;;;;5098570;28;19924;-78
2021/07/20 04:11:59;;;;;;;;;;;18.00;99.90;;;;;;5098310;28;19924;-78
2021/07/20 04:14:28;;;;;;;;;;;18.00;99.90;;;;;;5098388;28;19924;-77
2021/07/20 04:16:54;;;;;;;;;;;18.00;99.90;;;;;;5098278;28;20260;-78
2021/07/20 04:19:21;;;;;;;;;;;18.00;99.90;;;;;;5098351;28;19928;-78
2021/07/20 04:21:48;;;;;;;;;;;18.10;99.90;;;;;;5098312;28;20245;-77
2021/07/20 04:24:15;;;;;;;;;;;18.10;99.90;;;;;;5098274;28;20345;-78
2021/07/20 04:26:42;;;;;;;;;;;18.00;99.90;;;;;;5098159;28;19924;-77
2021/07/20 04:29:09;;;;;;;;;;;18.00;99.90;;;;;;5098014;28;19935;-77
2021/07/20 04:31:38;;;;;;;;;;;18.00;99.90;;;;;;5098259;28;19935;-77
2021/07/20 04:34:04;;;;;;;;;;;18.00;99.90;;;;;;5097985;28;20234;-77
2021/07/20 04:36:31;;;;;;;;;;;18.00;99.90;;;;;;5097955;28;20361;-77
2021/07/20 04:38:58;;;;;;;;;;;18.00;99.90;;;;;;5098014;28;19924;-78
2021/07/20 04:41:25;;;;;;;;;;;18.00;99.90;;;;;;5097802;28;19934;-78
2021/07/20 04:43:52;;;;;;;;;;;18.00;99.90;;;;;;5097689;28;19928;-78
2021/07/20 04:46:19;;;;;;;;;;;18.00;99.90;;;;;;5097999;28;19936;-77
2021/07/20 04:48:47;;;;;;;;;;;18.00;99.90;;;;;;5097899;28;19934;-78
2021/07/20 04:51:14;;;;;;;;;;;18.00;99.90;;;;;;5097649;28;20466;-77
2021/07/20 04:53:41;;;;;;;;;;;17.90;99.90;;;;;;5097645;28;19928;-77
2021/07/20 04:56:08;;;;;;;;;;;17.90;99.90;;;;;;5097653;28;19924;-77
2021/07/20 04:58:35;;;;;;;;;;;17.90;99.90;;;;;;5097747;28;19924;-77
2021/07/20 05:01:02;;;;;;;;;;;17.90;99.90;;;;;;5097634;28;19924;-77
2021/07/20 05:03:30;;;;;;;;;;;17.90;99.90;;;;;;5096814;28;19924;-77
2021/07/20 05:05:58;;;;;;;;;;;17.90;99.90;;;;;;5097416;28;19970;-77
2021/07/20 05:08:26;;;;;;;;;;;17.90;99.90;;;;;;5097668;28;19924;-77
2021/07/20 05:10:53;;;;;;;;;;;17.90;99.90;;;;;;5097121;28;19932;-77
2021/07/20 05:13:20;;;;;;;;;;;18.00;99.90;;;;;;5097472;28;19994;-77
2021/07/20 05:15:47;;;;;;;;;;;18.00;99.90;;;;;;5097403;28;19934;-77
2021/07/20 05:18:14;;;;;;;;;;;18.00;99.90;;;;;;5097349;28;19924;-78
2021/07/20 05:20:41;;;;;;;;;;;18.00;99.90;;;;;;5097066;28;19935;-77
2021/07/20 05:23:09;;;;;;;;;;;18.10;99.90;;;;;;5097143;28;19924;-77
2021/07/20 05:25:36;;;;;;;;;;;18.10;99.90;;;;;;5096663;28;19924;-77
2021/07/20 05:28:03;;;;;;;;;;;18.10;99.90;;;;;;5096989;28;19934;-77
2021/07/20 05:30:30;;;;;;;;;;;18.20;99.90;;;;;;5096998;28;20002;-77
2021/07/20 05:32:57;;;;;;;;;;;18.20;99.90;;;;;;5096916;28;19924;-78
2021/07/20 05:35:23;;;;;;;;;;;18.30;99.90;;;;;;5096968;28;19928;-78
2021/07/20 05:37:50;;;;;;;;;;;18.30;99.90;;;;;;5096944;28;19924;-78
2021/07/20 05:40:20;;;;;;;;;;;18.30;99.90;;;;;;5096612;28;19950;-78
2021/07/20 05:42:47;;;;;;;;;;;18.40;99.90;;;;;;5096617;28;20264;-78
2021/07/20 05:45:14;;;;;;;;;;;18.50;99.90;;;;;;5096655;28;19924;-78
2021/07/20 05:47:41;;;;;;;;;;;18.50;99.90;;;;;;5096592;28;19924;-78
2021/07/20 05:50:09;;;;;;;;;;;18.60;99.90;;;;;;5096645;28;19935;-78
2021/07/20 05:52:36;;;;;;;;;;;18.70;99.90;;;;;;5096534;28;19931;-78
2021/07/20 05:55:04;;;;;;;;;;;18.80;99.90;;;;;;5096378;28;20261;-78
2021/07/20 05:57:32;;;;;;;;;;;18.90;99.90;;;;;;5096435;28;20345;-78
2021/07/20 05:59:59;;;;;;;;;;;19.00;99.90;;;;;;5096382;28;20356;-78
2021/07/20 06:02:26;;;;;;;;;;;19.10;99.90;;;;;;5096165;28;19934;-78
2021/07/20 06:04:52;;;;;;;;;;;19.20;99.90;;;;;;5096212;28;19928;-78
2021/07/20 06:07:19;;;;;;;;;;;19.40;99.90;;;;;;5096035;28;20011;-78
2021/07/20 06:09:46;;;;;;;;;;;19.50;99.90;;;;;;5096209;28;20015;-78
2021/07/20 06:12:13;;;;;;;;;;;19.60;99.90;;;;;;5095884;28;19934;-80
2021/07/20 06:14:42;;;;;;;;;;;19.70;99.90;;;;;;5095188;28;20260;-80
2021/07/20 06:17:09;;;;;;;;;;;19.90;99.90;;;;;;5096136;28;19924;-80
2021/07/20 06:19:37;;;;;;;;;;;20.00;99.90;;;;;;5096077;28;19924;-80
2021/07/20 06:22:06;;;;;;;;;;;20.10;99.90;;;;;;5095874;28;19934;-80
2021/07/20 06:24:33;;;;;;;;;;;20.20;99.90;;;;;;5096136;28;19924;-80
2021/07/20 06:27:03;;;;;;;;;;;20.40;99.90;;;;;;5095988;28;19924;-80
2021/07/20 06:29:31;;;;;;;;;;;20.60;99.90;;;;;;5095962;28;19931;-80
2021/07/20 06:32:07;;;;;;;;;;;20.80;99.90;;;;;;5095284;28;19924;-80
2021/07/20 06:34:36;;;;;;;;;;;21.00;99.90;;;;;;5095735;28;19924;-80
2021/07/20 06:37:03;;;;;;;;;;;21.30;99.90;;;;;;5095528;28;20269;-81
2021/07/20 06:39:31;;;;;;;;;;;21.70;99.90;;;;;;5095921;28;19931;-81
2021/07/20 06:41:59;;;;;;;;;;;22.10;99.90;;;;;;5095708;28;19946;-81
2021/07/20 06:44:27;;;;;;;;;;;22.70;99.90;;;;;;5095595;28;19930;-81
2021/07/20 06:46:55;;;;;;;;;;;23.70;99.90;;;;;;5095520;28;19924;-81
2021/07/20 06:49:31;;;;;;;;;;;25.20;99.90;;;;;;5095443;28;20065;-81
2021/07/20 06:52:00;;;;;;;;;;;26.90;99.90;;;;;;5095564;28;20425;-82
2021/07/20 06:54:28;;;;;;;8.48;3.78;;;28.60;99.90;;;;;;5094575;28;20456;-83
2021/07/20 06:56:57;;;;;;;3.50;3.10;;;30.20;99.90;;;;;;5094945;28;20483;-85
2021/07/20 06:59:26;;;;;;;4.78;3.40;;;31.30;98.80;;;;;;5095035;28;20151;-84
2021/07/20 07:01:54;;;;;;;3.05;1.35;;;31.80;96.00;;;;;;5094708;28;20385;-85
2021/07/20 07:04:26;;;;;;;5.03;3.35;;;32.40;99.00;;;;;;5094941;28;20062;-85
2021/07/20 07:06:56;;;;;;;;;;;33.00;98.50;;;;;;5095435;28;20056;-83
2021/07/20 07:09:24;;;;;;;5.35;3.88;;;33.40;95.00;;;;;;5094182;28;20440;-84
2021/07/20 07:11:51;;;;;;;4.97;4.05;;;33.90;91.40;;;;;;5094532;28;20048;-84
2021/07/20 07:14:18;;;;;;;80.63;55.97;;;34.10;83.10;;;;;;5094587;28;20472;-82
2021/07/20 07:16:47;;;;;;;24.40;17.50;;;34.40;82.80;;;;;;5094582;28;20048;-80
2021/07/20 07:19:15;;;;;;;13.23;9.07;;;33.70;71.70;;;;;;5094833;28;20062;-83
2021/07/20 07:21:43;;;;;;;8.30;4.97;;;32.60;80.00;;;;;;5094579;28;20047;-83
2021/07/20 07:24:11;;;;;;;5.78;4.53;;;32.70;82.80;;;;;;5093671;28;20058;-83
2021/07/20 07:26:38;;;;;;;7.80;4.18;;;33.50;73.10;;;;;;5097372;28;20058;-83
2021/07/20 07:29:07;;;;;;;7.13;3.28;;;34.10;71.50;;;;;;5098625;28;20055;-82
2021/07/20 07:31:35;;;;;;;5.68;4.00;;;35.00;70.20;;;;;;5098639;28;20412;-83
2021/07/20 07:34:02;;;;;;;7.18;3.72;;;35.60;64.60;;;;;;5098750;28;20050;-83
2021/07/20 07:36:31;;;;;;;5.57;3.92;;;36.30;63.80;;;;;;5098726;28;20397;-83
2021/07/20 07:39:02;;;;;;;5.93;4.13;;;37.20;63.80;;;;;;5098682;28;20047;-80
2021/07/20 07:41:33;;;;;;;5.50;3.40;;;38.00;61.30;;;;;;5098569;28;20052;-80
2021/07/20 07:44:02;;;;;;;5.10;3.28;;;38.30;56.70;;;;;;5098574;28;20044;-81
2021/07/20 07:46:31;;;;;;;6.40;4.55;;;38.10;57.00;;;;;;5098639;28;20058;-81
2021/07/20 07:49:01;;;;;;;5.57;3.67;;;38.50;57.60;;;;;;5098470;28;20376;-81
2021/07/20 07:51:33;;;;;;;8.02;4.53;;;39.00;56.50;;;;;;5098528;28;20129;-80
2021/07/20 07:54:09;;;;;;;5.50;4.73;;;39.40;55.80;;;;;;5098493;28;20056;-80
2021/07/20 07:56:38;;;;;;;5.45;4.15;;;39.60;55.00;;;;;;5098348;28;20234;-80
2021/07/20 07:59:07;;;;;;;4.78;3.45;;;39.60;54.10;;;;;;5098290;28;20044;-80
2021/07/20 08:01:35;;;;;;;4.82;3.78;;;39.70;52.90;;;;;;5098057;28;20052;-80
2021/07/20 08:04:03;;;;;;;7.18;3.67;;;39.10;52.70;;;;;;5098123;28;20055;-79
2021/07/20 08:06:32;;;;;;;4.85;3.17;;;39.30;51.70;;;;;;5097990;28;20044;-80
2021/07/20 08:09:02;;;;;;;4.00;3.50;;;39.30;52.30;;;;;;5097956;28;20475;-80
2021/07/20 08:11:29;;;;;;;5.32;3.35;;;39.50;52.20;;;;;;5097629;28;20060;-80
2021/07/20 08:13:59;;;;;;;6.25;3.67;;;39.80;52.40;;;;;;5098089;28;20066;-77
2021/07/20 08:16:30;;;;;;;4.32;3.35;;;40.10;51.50;;;;;;5097321;28;20044;-79
2021/07/20 08:18:58;;;;;;;3.88;2.95;;;40.20;51.70;;;;;;5097742;28;20476;-78
2021/07/20 08:21:28;;;;;;;8.38;3.72;;;39.70;51.50;;;;;;5097954;28;20062;-78
2021/07/20 08:23:57;;;;;;;5.18;3.45;;;38.50;52.10;;;;;;5097894;28;20089;-79
2021/07/20 08:26:29;;;;;;;4.45;2.70;;;36.60;54.00;;;;;;5097798;28;20066;-78
2021/07/20 08:28:58;;;;;;;;;;;35.10;55.60;;;;;;5097977;28;20051;-80
2021/07/20 08:31:28;;;;;;;5.22;4.00;;;33.70;57.20;;;;;;5097165;28;20429;-79
2021/07/20 08:33:58;;;;;;;5.35;3.72;;;32.40;60.20;;;;;;5097420;28;20044;-80
2021/07/20 08:36:25;;;;;;;4.82;3.13;;;31.10;62.20;;;;;;5097164;28;20048;-79
2021/07/20 08:38:54;;;;;;;4.95;3.13;;;30.10;66.30;;;;;;5096648;28;20468;-79
2021/07/20 08:41:31;;;;;;;4.93;3.30;;;29.30;70.70;;;;;;5097478;28;20048;-79
2021/07/20 08:44:09;;;;;;;4.93;2.80;;;28.70;83.00;;;;;;5097361;28;20058;-79
2021/07/20 08:46:44;;;;;;;;;;;28.10;92.50;;;;;;5097963;28;20052;-79
2021/07/20 08:49:15;;;;;;;;;;;27.70;98.10;;;;;;5097657;28;19920;-79
2021/07/20 08:51:43;;;;;;;;;;;27.50;99.80;;;;;;5097616;28;19920;-81
2021/07/20 08:54:11;;;;;;;;;;;27.10;99.90;;;;;;5097730;28;19930;-81
2021/07/20 08:56:41;;;;;;;;;;;26.80;99.90;;;;;;5096717;28;19930;-79
2021/07/20 08:59:08;;;;;;;;;;;26.50;99.90;;;;;;5097891;28;20235;-79
2021/07/20 09:01:36;;;;;;;;;;;26.40;99.90;;;;;;5097545;28;19926;-79
2021/07/20 09:04:05;;;;;;;;;;;26.20;99.90;;;;;;5097495;28;20036;-79
2021/07/20 09:06:36;;;;;;;7.80;3.40;;;26.20;99.90;;;;;;5096812;28;20500;-79
2021/07/20 09:09:07;;;;;;;8.57;2.33;;;26.00;99.90;;;;;;5097027;28;20294;-79
2021/07/20 09:11:38;;;;;;;5.90;2.47;;;25.80;99.90;;;;;;5096680;28;20373;-79
2021/07/20 09:14:11;;;;;;;7.68;2.88;;;25.80;99.90;;;;;;5096800;28;20047;-79
2021/07/20 09:16:45;;;;;;;4.60;2.63;;;25.70;99.90;;;;;;5096813;28;20484;-81
2021/07/20 09:19:15;;;;;;;;;;;25.70;99.90;;;;;;5096934;28;20515;-81
2021/07/20 09:21:44;;;;;;;;;;;25.80;99.90;;;;;;5097138;28;19935;-80
2021/07/20 09:24:13;;;;;;;;;;;25.80;99.90;;;;;;5096914;28;19924;-81
2021/07/20 09:26:42;;;;;;;;;;;25.80;99.90;;;;;;5097008;28;19931;-81
2021/07/20 09:29:14;;;;;;;;;;;25.70;99.90;;;;;;5096924;28;20018;-79
2021/07/20 09:31:49;;;;;;;;;;;25.70;99.90;;;;;;5096955;28;20338;-81
2021/07/20 09:34:21;;;;;;;;;;;25.60;99.90;;;;;;5093645;28;19935;-81
2021/07/20 09:36:48;;;;;;;;;;;25.60;99.90;;;;;;5096553;28;19935;-81
2021/07/20 09:39:19;;;;;;;;;;;25.60;99.90;;;;;;5096197;28;19982;-83
2021/07/20 09:41:48;;;;;;;;;;;25.50;99.90;;;;;;5096792;28;19924;-83
2021/07/20 09:44:21;;;;;;;;;;;25.50;99.90;;;;;;5096115;28;19935;-82
2021/07/20 09:46:51;;;;;;;;;;;25.50;99.90;;;;;;5096861;28;19994;-83
2021/07/20 09:49:19;;;;;;;;;;;25.40;99.90;;;;;;5096446;28;19928;-83
2021/07/20 09:52:01;;;;;;;;;;;25.30;99.90;;;;;;5096523;28;20379;-79
2021/07/20 09:54:37;;;;;;;;;;;25.30;99.90;;;;;;5096596;28;19934;-79
2021/07/20 09:57:16;;;;;;;;;;;25.30;99.90;;;;;;5096470;28;20354;-81
2021/07/20 09:59:54;;;;;;;;;;;25.30;99.90;;;;;;5096781;28;19931;-81
2021/07/20 10:02:22;;;;;;;;;;;25.30;99.90;;;;;;5096565;28;19924;-81
2021/07/20 10:04:52;;;;;;;;;;;25.30;99.90;;;;;;5096317;28;19998;-79
2021/07/20 10:07:20;;;;;;;;;;;25.30;99.90;;;;;;5096245;28;19975;-80
2021/07/20 10:09:48;;;;;;;;;;;25.40;99.90;;;;;;5096369;28;19924;-79
2021/07/20 10:12:17;;;;;;;;;;;25.40;99.90;;;;;;5095943;28;19924;-81
2021/07/20 10:14:47;;;;;;;;;;;25.40;99.90;;;;;;5096019;28;20377;-82
2021/07/20 10:17:18;;;;;;;;;;;25.40;99.90;;;;;;5096137;28;19928;-82
2021/07/20 10:19:47;;;;;;;;;;;25.40;99.90;;;;;;5095800;28;19924;-82
2021/07/20 10:22:14;;;;;;;;;;;25.50;99.90;;;;;;5095889;28;20338;-82
2021/07/20 10:24:43;;;;;;;;;;;25.50;99.90;;;;;;5095948;28;20030;-82
2021/07/20 10:27:13;;;;;;;;;;;25.60;99.90;;;;;;5095918;28;19924;-82
2021/07/20 10:29:51;;;;;;;;;;;25.60;99.90;;;;;;5095982;28;19930;-82
2021/07/20 10:32:20;;;;;;;;;;;25.50;99.90;;;;;;5095849;28;19939;-83
2021/07/20 10:34:48;;;;;;;;;;;25.50;99.90;;;;;;5095579;28;20010;-79
2021/07/20 10:37:16;;;;;;;;;;;25.50;99.90;;;;;;5095596;28;19934;-84
2021/07/20 10:39:43;;;;;;;;;;;25.40;99.90;;;;;;5095730;28;20014;-81
2021/07/20 10:42:11;;;;;;;;;;;25.40;99.90;;;;;;5094915;28;20044;-81
2021/07/20 10:44:43;;;;;;;;;;;25.40;99.90;;;;;;5095142;28;20011;-81
2021/07/20 10:47:10;;;;;;;;;;;25.40;99.90;;;;;;5095490;28;20359;-81
2021/07/20 10:49:41;;;;;;;;;;;25.40;99.90;;;;;;5095811;28;19924;-81
2021/07/20 10:52:25;;;;;;;;;;;25.40;99.90;;;;;;5095628;28;19924;-82
2021/07/20 10:54:53;;;;;;;;;;;25.50;99.90;;;;;;5095646;28;20002;-82
2021/07/20 10:57:22;;;;;;;;;;;25.60;99.90;;;;;;5095373;28;19931;-82
2021/07/20 10:59:58;;;;;;;;;;;25.60;99.90;;;;;;5095263;28;19948;-82
2021/07/20 11:02:35;;;;;;;;;;;25.70;99.90;;;;;;5095281;28;19924;-82
2021/07/20 11:05:04;;;;;;;;;;;25.70;99.90;;;;;;5094406;28;20401;-82
2021/07/20 11:07:32;;;;;;;;;;;25.70;99.90;;;;;;5095147;28;19925;-82
2021/07/20 11:09:59;;;;;;;;;;;25.80;99.90;;;;;;5094860;28;20352;-82
2021/07/20 11:12:28;;;;;;;;;;;25.80;99.90;;;;;;5094989;28;20277;-81
2021/07/20 11:15:15;;;;;;;;;;;25.80;99.90;;;;;;5095374;28;19934;-82
2021/07/20 11:17:43;;;;;;;;;;;25.80;99.90;;;;;;5095452;28;19924;-81
2021/07/20 11:20:14;;;;;;;;;;;25.80;99.70;;;;;;5095090;28;19924;-81
2021/07/20 11:22:42;;;;;;;;;;;25.80;99.40;;;;;;5095152;28;19924;-82
2021/07/20 11:25:10;;;;;;;;;;;25.80;99.90;;;;;;5095035;28;20353;-82
2021/07/20 11:27:39;;;;;;;;;;;25.80;99.90;;;;;;5095022;28;19924;-82
2021/07/20 11:30:07;;;;;;;;;;;25.80;99.40;;;;;;5095031;28;19932;-82
2021/07/20 11:32:38;;;;;;;;;;;25.80;99.90;;;;;;5094905;28;19924;-82
2021/07/20 11:35:06;;;;;;;;;;;25.80;99.80;;;;;;5095038;28;19939;-82
2021/07/20 11:37:36;;;;;;;;;;;25.80;99.90;;;;;;5095062;28;19932;-82
2021/07/20 11:40:04;;;;;;;;;;;25.90;97.70;;;;;;5094921;28;19924;-81
2021/07/20 11:42:34;;;;;;;;;;;25.90;98.90;;;;;;5095089;28;19930;-81
2021/07/20 11:45:12;;;;;;;;;;;25.80;97.30;;;;;;5094998;28;19924;-81
2021/07/20 11:47:43;;;;;;;;;;;25.80;98.90;;;;;;5095062;28;19932;-82
2021/07/20 11:50:11;;;;;;;;;;;25.80;95.60;;;;;;5095040;28;19928;-79
2021/07/20 11:52:40;;;;;;;;;;;25.80;96.10;;;;;;5094871;28;19924;-81
2021/07/20 11:55:08;;;;;;;;;;;25.80;95.50;;;;;;5094771;28;19924;-79
2021/07/20 11:57:49;;;;;;;;;;;25.80;96.40;;;;;;5094954;28;19934;-81
2021/07/20 12:00:18;;;;;;;;;;;25.80;97.70;;;;;;5093960;28;19930;-81
2021/07/20 12:03:01;;;;;;;;;;;25.80;99.00;;;;;;5094755;28;20330;-82
2021/07/20 12:05:50;;;;;;;;;;;25.80;97.40;;;;;;5095057;28;20326;-81
2021/07/20 12:08:21;;;;;;;;;;;25.90;97.30;;;;;;5094760;28;19924;-82
2021/07/20 12:10:50;;;;;;;;;;;25.90;98.00;;;;;;5094585;28;19924;-81
2021/07/20 12:13:17;;;;;;;;;;;25.90;98.30;;;;;;5098303;28;19931;-80
2021/07/20 12:15:44;;;;;;;;;;;25.90;97.50;;;;;;5098351;28;19924;-80
2021/07/20 12:18:11;;;;;;;;;;;26.00;99.80;;;;;;5098309;28;20353;-81
2021/07/20 12:20:38;;;;;;;;;;;26.00;97.00;;;;;;5098347;28;19935;-81
2021/07/20 12:23:04;;;;;;;;;;;26.00;96.50;;;;;;5098210;28;19924;-81
2021/07/20 12:25:33;;;;;;;;;;;26.00;97.50;;;;;;5098295;28;19924;-81
2021/07/20 12:28:00;;;;;;;;;;;26.10;96.00;;;;;;5098287;28;19934;-82
2021/07/20 12:30:28;;;;;;;;;;;26.10;96.10;;;;;;5098122;28;19935;-82
2021/07/20 12:32:57;;;;;;;;;;;26.10;95.60;;;;;;5098088;28;19938;-82
2021/07/20 12:35:26;;;;;;;;;;;26.10;96.60;;;;;;5098116;28;19931;-82
2021/07/20 12:38:00;;;;;;;;;;;26.20;94.00;;;;;;5098102;28;19924;-82
2021/07/20 12:40:29;;;;;;;;;;;26.20;95.50;;;;;;5098010;28;20353;-82
2021/07/20 12:43:14;;;;;;;;;;;26.20;94.50;;;;;;5098209;28;19938;-82
2021/07/20 12:45:43;;;;;;;;;;;26.20;96.10;;;;;;5095644;28;19935;-82
2021/07/20 12:48:24;;;;;;;;;;;26.20;96.60;;;;;;5097255;28;20387;-82
2021/07/20 12:50:51;;;;;;;;;;;26.20;96.30;;;;;;5094136;28;19928;-82
2021/07/20 12:53:19;;;;;;;;;;;26.20;94.80;;;;;;5096191;28;20264;-81
2021/07/20 12:55:47;;;;;;;;;;;26.20;92.20;;;;;;5096848;28;20470;-81
2021/07/20 12:58:20;;;;;;;;;;;26.10;91.40;;;;;;5095948;28;20269;-83
2021/07/20 13:00:46;;;;;;;;;;;26.10;93.10;;;;;;5096699;28;20436;-82
2021/07/20 13:03:13;;;;;;;;;;;26.00;96.00;;;;;;5097486;28;19924;-82
2021/07/20 13:05:40;;;;;;;;;;;26.00;96.80;;;;;;5097447;28;20019;-82
2021/07/20 13:08:07;;;;;;;;;;;26.10;95.20;;;;;;5097156;28;19931;-82
2021/07/20 13:10:34;;;;;;;;;;;26.10;93.40;;;;;;5097321;28;20330;-82
2021/07/20 13:13:01;;;;;;;;;;;26.10;95.50;;;;;;5097249;28;19924;-82
2021/07/20 13:15:30;;;;;;;;;;;26.10;86.80;;;;;;5096371;28;19924;-82
2021/07/20 13:17:57;;;;;;;;;;;26.10;94.60;;;;;;5097244;28;19938;-83
2021/07/20 13:20:24;;;;;;;;;;;26.10;93.50;;;;;;5097364;28;19936;-83
2021/07/20 13:22:51;;;;;;;;;;;26.10;93.00;;;;;;5096920;28;19934;-82
2021/07/20 13:25:18;;;;;;;;;;;26.10;91.20;;;;;;5096845;28;19924;-83
2021/07/20 13:27:46;;;;;;;;;;;26.20;87.80;;;;;;5097035;28;19924;-82
2021/07/20 13:30:14;;;;;;;;;;;26.20;92.20;;;;;;5096986;28;19940;-82
2021/07/20 13:32:42;;;;;;;;;;;26.20;93.30;;;;;;5096957;28;20014;-82
2021/07/20 13:35:10;;;;;;;;;;;26.20;91.70;;;;;;5097167;28;19924;-83
2021/07/20 13:37:37;;;;;;;;;;;26.30;90.60;;;;;;5096847;28;19928;-82
2021/07/20 13:40:04;;;;;;;;;;;26.20;93.00;;;;;;5096765;28;20367;-82
2021/07/20 13:42:31;;;;;;;;;;;26.20;92.50;;;;;;5096751;28;19924;-82
2021/07/20 13:44:58;;;;;;;;;;;26.20;92.40;;;;;;5096640;28;19924;-82
2021/07/20 13:47:25;;;;;;;;;;;26.30;86.30;;;;;;5096663;28;20238;-82
2021/07/20 13:49:55;;;;;;;;;;;26.20;85.50;;;;;;5096497;28;19928;-83
2021/07/20 13:52:22;;;;;;;;;;;26.20;89.70;;;;;;5096685;28;19924;-80
2021/07/20 13:54:48;;;;;;;;;;;26.20;89.70;;;;;;5096429;28;19924;-82
2021/07/20 13:57:16;;;;;;;;;;;26.10;86.60;;;;;;5096545;28;19924;-82
2021/07/20 13:59:46;;;;;;;;;;;26.10;88.90;;;;;;5096353;28;19930;-82
2021/07/20 14:02:15;;;;;;;;;;;26.10;92.90;;;;;;5096680;28;19982;-82
2021/07/20 14:04:43;;;;;;;;;;;26.10;90.00;;;;;;5096222;28;20250;-82
2021/07/20 14:07:12;;;;;;;;;;;26.20;89.60;;;;;;5096257;28;20371;-80
2021/07/20 14:09:40;;;;;;;;;;;26.20;88.50;;;;;;5096228;28;19946;-82
2021/07/20 14:12:09;;;;;;;;;;;26.20;92.80;;;;;;5096004;28;19928;-82
2021/07/20 14:14:37;;;;;;;;;;;26.20;93.80;;;;;;5096086;28;19946;-82
2021/07/20 14:17:05;;;;;;;;;;;26.30;94.40;;;;;;5096045;28;20273;-83
2021/07/20 14:19:33;;;;;;;;;;;26.30;91.90;;;;;;5096030;28;19934;-82
2021/07/20 14:22:01;;;;;;;;;;;26.20;93.00;;;;;;5096051;28;19924;-82
2021/07/20 14:24:29;;;;;;;;;;;26.20;94.30;;;;;;5095859;28;20363;-82
2021/07/20 14:26:57;;;;;;;;;;;26.20;95.40;;;;;;5095803;28;19931;-82
2021/07/20 14:29:25;;;;;;;;;;;26.10;93.80;;;;;;5096111;28;19974;-82
2021/07/20 14:31:52;;;;;;;;;;;26.10;92.60;;;;;;5095631;28;19924;-82
2021/07/20 14:34:21;;;;;;;;;;;26.10;96.80;;;;;;5095505;28;19931;-82
2021/07/20 14:36:48;;;;;;;;;;;26.10;96.20;;;;;;5095259;28;19974;-83
2021/07/20 14:39:32;;;;;;;;;;;26.10;96.80;;;;;;5095718;28;20365;-82
2021/07/20 14:42:20;;;;;;;;;;;26.10;92.40;;;;;;5095698;28;19925;-82
2021/07/20 14:45:01;;;;;;;;;;;26.20;91.80;;;;;;5090700;28;20010;-80
2021/07/20 14:47:56;;;;;;;;;;;26.20;91.10;;;;;;5095630;28;19924;-82
2021/07/20 14:50:24;;;;;;;;;;;26.20;91.00;;;;;;5095724;28;19949;-82
2021/07/20 14:52:56;;;;;;;;;;;26.20;92.50;;;;;;5095430;28;19934;-82
2021/07/20 14:55:38;;;;;;;;;;;26.20;90.00;;;;;;5095498;28;19924;-81
2021/07/20 14:58:14;;;;;;;;;;;26.10;92.20;;;;;;5095437;28;19924;-81
2021/07/20 15:00:49;;;;;;;;;;;26.10;92.70;;;;;;5095346;28;20346;-82
2021/07/20 15:03:26;;;;;;;;;;;26.10;94.00;;;;;;5095418;28;19924;-82